createdAt,value
2019-02-28T00:00:29.387Z,53.34
2019-02-28T00:01:29.403Z,53.76
2019-02-28T00:02:29.371Z,53.55
2019-02-28T00:03:29.348Z,53.76
2019-02-28T00:04:32.285Z,53.55
2019-02-28T00:05:29.417Z,53.76
2019-02-28T00:06:29.319Z,53.55
2019-02-28T00:07:29.329Z,53.45
2019-02-28T00:08:29.322Z,54.27
2019-02-28T00:09:29.279Z,54.27
2019-02-28T00:11:02.015Z,53.34
2019-02-28T00:12:00.933Z,54.17
2019-02-28T00:13:30.613Z,53.34
2019-02-28T00:14:30.579Z,54.46
2019-02-28T00:16:03.398Z,53.96
2019-02-28T00:17:01.251Z,54.19
2019-02-28T00:18:31.987Z,54.61
2019-02-28T00:19:31.947Z,54.38
2019-02-28T00:21:06.067Z,55.13
2019-02-28T00:22:02.621Z,54.92
2019-02-28T00:23:33.335Z,55.43
2019-02-28T00:24:33.313Z,55.46
2019-02-28T00:26:03.997Z,55.74
2019-02-28T00:27:03.991Z,55.56
2019-02-28T00:28:34.716Z,56.08
2019-02-28T00:29:34.683Z,56.08
2019-02-28T00:31:05.363Z,56.29
2019-02-28T00:32:05.359Z,57.04
2019-02-28T00:33:05.341Z,56.62
2019-02-28T00:34:05.604Z,56.93
2019-02-28T00:35:05.320Z,57.04
2019-02-28T00:36:05.303Z,57.24
2019-02-28T00:37:05.306Z,57.04
2019-02-28T00:38:05.297Z,57.48
2019-02-28T00:39:05.287Z,57.27
2019-02-28T00:40:38.482Z,58.09
2019-02-28T00:41:35.939Z,57.99
2019-02-28T00:43:06.651Z,57.04
2019-02-28T00:44:06.631Z,57.24
2019-02-28T00:45:37.425Z,58.09
2019-02-28T00:46:37.279Z,57.37
2019-02-28T00:48:07.953Z,58.28
2019-02-28T00:49:07.947Z,58.38
2019-02-28T00:50:38.638Z,58.07
2019-02-28T00:51:38.628Z,57.45
2019-02-28T00:53:09.299Z,57.94
2019-02-28T00:54:09.700Z,58.59
2019-02-28T00:55:09.265Z,58.59
2019-02-28T00:56:09.252Z,58.59
2019-02-28T00:57:09.239Z,59.10
2019-02-28T00:58:09.240Z,58.56
2019-02-28T00:59:09.211Z,58.76
2019-02-28T01:00:09.199Z,58.89
2019-02-28T01:01:11.551Z,58.87
2019-02-28T01:02:09.186Z,59.39
2019-02-28T01:03:09.168Z,58.87
2019-02-28T01:04:09.189Z,58.12
2019-02-28T01:05:09.181Z,57.29
2019-02-28T01:06:10.565Z,57.37
2019-02-28T01:07:09.178Z,56.96
2019-02-28T01:08:09.135Z,56.54
2019-02-28T01:09:09.111Z,56.41
2019-02-28T01:10:09.109Z,56.41
2019-02-28T01:11:10.367Z,56.52
2019-02-28T01:12:09.083Z,56.62
2019-02-28T01:13:09.083Z,57.55
2019-02-28T01:14:09.058Z,56.93
2019-02-28T01:15:10.076Z,56.83
2019-02-28T01:16:09.055Z,57.34
2019-02-28T01:17:09.043Z,57.24
2019-02-28T01:18:09.084Z,57.14
2019-02-28T01:19:10.087Z,57.03
2019-02-28T01:20:08.996Z,57.32
2019-02-28T01:21:08.978Z,57.34
2019-02-28T01:22:08.968Z,56.29
2019-02-28T01:23:08.959Z,56.39
2019-02-28T01:24:08.950Z,55.64
2019-02-28T01:25:08.936Z,54.69
2019-02-28T01:26:11.733Z,54.48
2019-02-28T01:27:08.913Z,54.35
2019-02-28T01:28:08.905Z,53.97
2019-02-28T01:29:08.897Z,54.25
2019-02-28T01:30:08.894Z,54.15
2019-02-28T01:31:11.563Z,53.84
2019-02-28T01:32:08.867Z,54.05
2019-02-28T01:33:08.847Z,54.66
2019-02-28T01:34:39.601Z,54.05
2019-02-28T01:35:40.746Z,54.56
2019-02-28T01:37:11.202Z,54.46
2019-02-28T01:38:11.196Z,54.15
2019-02-28T01:39:41.889Z,54.43
2019-02-28T01:40:41.854Z,53.61
2019-02-28T01:42:12.565Z,53.28
2019-02-28T01:43:12.529Z,52.76
2019-02-28T01:44:43.239Z,53.17
2019-02-28T01:45:44.232Z,52.53
2019-02-28T01:47:13.935Z,52.22
2019-02-28T01:48:13.907Z,51.61
2019-02-28T01:49:13.912Z,51.92
2019-02-28T01:50:13.881Z,52.40
2019-02-28T01:51:13.867Z,51.99
2019-02-28T01:52:13.868Z,51.58
2019-02-28T01:53:18.740Z,51.79
2019-02-28T01:54:14.842Z,51.89
2019-02-28T01:55:13.825Z,51.71
2019-02-28T01:56:13.807Z,52.12
2019-02-28T01:57:13.797Z,51.50
2019-02-28T01:58:16.290Z,51.99
2019-02-28T01:59:13.795Z,51.50
2019-02-28T02:00:13.771Z,51.68
2019-02-28T02:01:13.758Z,51.81
2019-02-28T02:02:13.749Z,52.22
2019-02-28T02:03:13.743Z,52.12
2019-02-28T02:04:13.740Z,51.50
2019-02-28T02:05:16.976Z,52.12
2019-02-28T02:06:13.711Z,51.92
2019-02-28T02:07:13.707Z,51.89
2019-02-28T02:08:13.702Z,51.79
2019-02-28T02:09:13.689Z,51.48
2019-02-28T02:10:13.665Z,51.79
2019-02-28T02:11:13.657Z,51.37
2019-02-28T02:12:13.667Z,51.58
2019-02-28T02:13:13.631Z,51.99
2019-02-28T02:14:13.620Z,51.37
2019-02-28T02:15:16.789Z,51.68
2019-02-28T02:16:13.593Z,51.58
2019-02-28T02:17:13.579Z,51.28
2019-02-28T02:18:13.576Z,52.09
2019-02-28T02:19:17.584Z,51.50
2019-02-28T02:20:13.549Z,51.68
2019-02-28T02:21:13.545Z,51.50
2019-02-28T02:22:13.550Z,51.61
2019-02-28T02:23:17.828Z,51.92
2019-02-28T02:24:14.506Z,52.22
2019-02-28T02:25:13.521Z,52.22
2019-02-28T02:26:13.494Z,52.01
2019-02-28T02:27:16.330Z,51.92
2019-02-28T02:28:14.469Z,52.43
2019-02-28T02:29:13.455Z,52.40
2019-02-28T02:30:15.237Z,52.43
2019-02-28T02:31:13.433Z,52.53
2019-02-28T02:32:13.426Z,52.01
2019-02-28T02:33:14.432Z,53.05
2019-02-28T02:34:13.399Z,52.01
2019-02-28T02:35:13.391Z,52.01
2019-02-28T02:36:16.408Z,52.53
2019-02-28T02:37:13.384Z,52.12
2019-02-28T02:38:13.396Z,52.01
2019-02-28T02:39:17.508Z,52.12
2019-02-28T02:40:13.349Z,52.81
2019-02-28T02:41:13.327Z,52.71
2019-02-28T02:42:13.314Z,52.73
2019-02-28T02:43:13.306Z,53.25
2019-02-28T02:44:13.301Z,53.35
2019-02-28T02:45:13.282Z,53.35
2019-02-28T02:46:19.892Z,53.25
2019-02-28T02:47:14.263Z,53.45
2019-02-28T02:48:13.451Z,53.15
2019-02-28T02:49:18.573Z,53.25
2019-02-28T02:50:14.240Z,53.02
2019-02-28T02:51:13.234Z,53.25
2019-02-28T02:52:13.202Z,54.05
2019-02-28T02:53:13.194Z,53.05
2019-02-28T02:54:17.916Z,53.33
2019-02-28T02:55:14.186Z,53.05
2019-02-28T02:56:13.187Z,54.07
2019-02-28T02:57:14.253Z,54.28
2019-02-28T02:58:13.136Z,53.77
2019-02-28T02:59:13.130Z,55.00
2019-02-28T03:00:14.812Z,54.07
2019-02-28T03:01:13.125Z,53.97
2019-02-28T03:02:13.113Z,54.36
2019-02-28T03:03:13.079Z,54.49
2019-02-28T03:04:21.403Z,54.69
2019-02-28T03:05:14.072Z,53.66
2019-02-28T03:06:14.406Z,54.90
2019-02-28T03:07:43.809Z,54.69
2019-02-28T03:08:43.716Z,55.00
2019-02-28T03:10:17.281Z,55.00
2019-02-28T03:11:14.403Z,55.41
2019-02-28T03:12:52.469Z,55.51
2019-02-28T03:13:45.085Z,55.72
2019-02-28T03:15:15.741Z,55.51
2019-02-28T03:16:15.714Z,55.30
2019-02-28T03:17:48.353Z,55.51
2019-02-28T03:18:46.400Z,55.30
2019-02-28T03:20:17.093Z,55.82
2019-02-28T03:21:17.063Z,55.93
2019-02-28T03:22:47.745Z,56.44
2019-02-28T03:23:47.712Z,56.23
2019-02-28T03:25:18.404Z,56.13
2019-02-28T03:26:18.382Z,55.93
2019-02-28T03:27:55.098Z,56.95
2019-02-28T03:28:50.022Z,56.44
2019-02-28T03:30:29.028Z,56.74
2019-02-28T03:31:20.700Z,56.87
2019-02-28T03:32:50.408Z,57.18
2019-02-28T03:33:50.344Z,57.29
2019-02-28T03:34:58.090Z,57.08
2019-02-28T03:35:51.341Z,57.29
2019-02-28T03:36:55.250Z,57.08
2019-02-28T03:37:51.307Z,57.18
2019-02-28T03:38:50.296Z,57.70
2019-02-28T03:40:21.017Z,57.90
2019-02-28T03:41:20.964Z,58.21
2019-02-28T03:42:51.645Z,58.21
2019-02-28T03:43:51.621Z,58.31
2019-02-28T03:45:22.293Z,58.21
2019-02-28T03:46:22.291Z,58.21
2019-02-28T03:47:58.523Z,58.42
2019-02-28T03:48:53.968Z,58.42
2019-02-28T03:50:23.644Z,59.03
2019-02-28T03:51:28.431Z,59.06
2019-02-28T03:52:55.298Z,59.24
2019-02-28T03:53:55.927Z,59.68
2019-02-28T03:54:55.268Z,59.27
2019-02-28T03:55:55.254Z,59.55
2019-02-28T03:56:55.246Z,59.06
2019-02-28T03:57:55.229Z,59.47
2019-02-28T03:58:55.216Z,59.86
2019-02-28T03:59:56.704Z,59.65
2019-02-28T04:00:55.215Z,59.58
2019-02-28T04:01:55.197Z,59.78
2019-02-28T04:02:58.709Z,59.58
2019-02-28T04:03:55.164Z,59.58
2019-02-28T04:04:55.150Z,59.89
2019-02-28T04:05:55.156Z,59.27
2019-02-28T04:06:55.169Z,59.17
2019-02-28T04:07:55.212Z,59.99
2019-02-28T04:08:55.104Z,60.09
2019-02-28T04:09:55.110Z,60.30
2019-02-28T04:10:55.902Z,60.71
2019-02-28T04:11:55.086Z,60.71
2019-02-28T04:12:55.064Z,60.61
2019-02-28T04:13:56.025Z,60.30
2019-02-28T04:14:55.068Z,60.50
2019-02-28T04:16:07.458Z,60.30
2019-02-28T04:16:56.032Z,60.71
2019-02-28T04:17:55.008Z,60.81
2019-02-28T04:18:55.000Z,60.37
2019-02-28T04:20:00.058Z,60.81
2019-02-28T04:20:55.981Z,60.91
2019-02-28T04:21:54.975Z,60.84
2019-02-28T04:22:58.852Z,61.15
2019-02-28T04:23:54.955Z,60.81
2019-02-28T04:24:54.942Z,61.66
2019-02-28T04:25:56.970Z,61.22
2019-02-28T04:26:54.909Z,61.02
2019-02-28T04:27:54.908Z,61.33
2019-02-28T04:28:55.048Z,61.46
2019-02-28T04:29:54.877Z,61.25
2019-02-28T04:30:54.872Z,62.18
2019-02-28T04:31:54.875Z,62.07
2019-02-28T04:33:01.188Z,61.87
2019-02-28T04:33:55.831Z,61.66
2019-02-28T04:34:54.835Z,62.28
2019-02-28T04:35:56.875Z,62.49
2019-02-28T04:36:55.802Z,62.28
2019-02-28T04:37:54.798Z,61.66
2019-02-28T04:38:54.787Z,62.59
2019-02-28T04:39:54.780Z,62.79
2019-02-28T04:40:54.780Z,61.77
2019-02-28T04:41:54.753Z,61.15
2019-02-28T04:42:54.741Z,61.66
2019-02-28T04:43:54.721Z,61.66
2019-02-28T04:44:54.730Z,62.28
2019-02-28T04:45:57.720Z,62.79
2019-02-28T04:46:54.702Z,61.87
2019-02-28T04:47:54.731Z,63.10
2019-02-28T04:48:54.690Z,63.00
2019-02-28T04:49:57.020Z,62.28
2019-02-28T04:50:54.664Z,62.70
2019-02-28T04:51:54.641Z,62.59
2019-02-28T04:52:54.631Z,62.90
2019-02-28T04:53:54.621Z,62.49
2019-02-28T04:54:54.622Z,63.10
2019-02-28T04:55:54.595Z,63.21
2019-02-28T04:56:54.604Z,63.10
2019-02-28T04:57:54.575Z,63.10
2019-02-28T04:58:56.431Z,62.70
2019-02-28T04:59:54.572Z,63.31
2019-02-28T05:00:54.543Z,63.00
2019-02-28T05:01:54.538Z,63.52
2019-02-28T05:02:55.079Z,63.52
2019-02-28T05:03:54.516Z,63.82
2019-02-28T05:04:54.497Z,63.72
2019-02-28T05:05:54.487Z,63.75
2019-02-28T05:06:55.309Z,63.85
2019-02-28T05:07:54.467Z,63.52
2019-02-28T05:08:54.461Z,63.72
2019-02-28T05:09:54.467Z,63.54
2019-02-28T05:10:55.937Z,63.52
2019-02-28T05:11:54.444Z,63.10
2019-02-28T05:12:54.422Z,63.34
2019-02-28T05:13:54.413Z,63.82
2019-02-28T05:14:55.232Z,63.52
2019-02-28T05:15:54.378Z,64.06
2019-02-28T05:16:54.369Z,64.68
2019-02-28T05:17:55.870Z,64.47
2019-02-28T05:18:54.357Z,64.17
2019-02-28T05:19:55.193Z,64.06
2019-02-28T05:21:25.034Z,64.17
2019-02-28T05:22:27.598Z,64.27
2019-02-28T05:23:56.701Z,64.06
2019-02-28T05:24:56.659Z,64.68
2019-02-28T05:26:27.404Z,64.37
2019-02-28T05:27:27.362Z,64.89
2019-02-28T05:28:58.062Z,64.71
2019-02-28T05:29:58.035Z,65.12
2019-02-28T05:31:28.754Z,64.92
2019-02-28T05:32:28.737Z,65.53
2019-02-28T05:33:59.417Z,65.33
2019-02-28T05:34:59.388Z,65.95
2019-02-28T05:36:30.062Z,65.74
2019-02-28T05:37:30.060Z,65.53
2019-02-28T05:39:00.757Z,66.15
2019-02-28T05:40:05.589Z,65.64
2019-02-28T05:41:32.413Z,65.33
2019-02-28T05:42:32.384Z,65.84
2019-02-28T05:44:05.861Z,65.43
2019-02-28T05:45:03.070Z,65.53
2019-02-28T05:46:33.780Z,65.95
2019-02-28T05:47:44.752Z,66.46
2019-02-28T05:49:08.738Z,66.87
2019-02-28T05:50:05.419Z,66.87
2019-02-28T05:51:35.556Z,66.97
2019-02-28T05:52:35.517Z,66.87
2019-02-28T05:54:06.208Z,67.18
2019-02-28T05:55:06.182Z,66.97
2019-02-28T05:56:36.922Z,67.08
2019-02-28T05:57:39.405Z,67.39
2019-02-28T05:59:08.562Z,67.60
2019-02-28T06:00:08.546Z,67.39
2019-02-28T06:01:39.220Z,67.32
2019-02-28T06:02:39.220Z,68.21
2019-02-28T06:04:09.873Z,67.70
2019-02-28T06:05:11.820Z,66.97
2019-02-28T06:06:09.864Z,67.52
2019-02-28T06:07:09.861Z,68.04
2019-02-28T06:08:09.829Z,68.24
2019-02-28T06:09:10.363Z,67.42
2019-02-28T06:10:09.815Z,68.24
2019-02-28T06:11:09.802Z,67.49
2019-02-28T06:12:10.210Z,68.24
2019-02-28T06:13:09.776Z,67.08
2019-02-28T06:14:09.765Z,67.39
2019-02-28T06:15:09.757Z,68.11
2019-02-28T06:16:12.316Z,68.14
2019-02-28T06:17:09.731Z,68.35
2019-02-28T06:18:09.740Z,68.45
2019-02-28T06:19:09.723Z,68.86
2019-02-28T06:20:09.705Z,68.96
2019-02-28T06:21:10.421Z,68.52
2019-02-28T06:22:09.690Z,68.55
2019-02-28T06:23:10.171Z,68.96
2019-02-28T06:24:12.782Z,68.83
2019-02-28T06:25:09.673Z,68.66
2019-02-28T06:26:09.643Z,69.07
2019-02-28T06:27:09.645Z,68.62
2019-02-28T06:28:09.641Z,68.93
2019-02-28T06:29:09.610Z,68.76
2019-02-28T06:30:09.644Z,68.73
2019-02-28T06:31:09.590Z,68.96
2019-02-28T06:32:09.574Z,69.07
2019-02-28T06:33:09.574Z,69.17
2019-02-28T06:34:09.561Z,69.04
2019-02-28T06:35:09.560Z,69.24
2019-02-28T06:36:09.547Z,69.27
2019-02-28T06:37:09.525Z,69.07
2019-02-28T06:38:09.524Z,69.65
2019-02-28T06:39:09.518Z,69.14
2019-02-28T06:40:09.509Z,69.76
2019-02-28T06:41:09.482Z,69.24
2019-02-28T06:42:11.858Z,69.35
2019-02-28T06:43:09.459Z,68.93
2019-02-28T06:44:09.453Z,68.93
2019-02-28T06:45:09.450Z,68.80
2019-02-28T06:46:09.469Z,68.80
2019-02-28T06:47:11.278Z,68.80
2019-02-28T06:48:09.415Z,68.70
2019-02-28T06:49:09.390Z,69.11
2019-02-28T06:50:09.393Z,69.11
2019-02-28T06:51:09.385Z,68.90
2019-02-28T06:52:09.369Z,69.21
2019-02-28T06:53:09.352Z,69.11
2019-02-28T06:54:09.347Z,68.90
2019-02-28T06:55:12.581Z,69.01
2019-02-28T06:56:09.318Z,69.01
2019-02-28T06:57:09.314Z,68.66
2019-02-28T06:58:09.312Z,68.77
2019-02-28T06:59:09.294Z,68.56
2019-02-28T07:00:10.372Z,68.43
2019-02-28T07:01:09.290Z,68.46
2019-02-28T07:02:09.270Z,68.63
2019-02-28T07:03:09.256Z,68.53
2019-02-28T07:04:11.517Z,67.91
2019-02-28T07:05:10.223Z,67.98
2019-02-28T07:06:09.221Z,67.50
2019-02-28T07:07:10.219Z,67.68
2019-02-28T07:08:09.189Z,67.16
2019-02-28T07:09:09.189Z,67.13
2019-02-28T07:10:09.719Z,66.93
2019-02-28T07:11:09.164Z,66.93
2019-02-28T07:12:09.149Z,66.69
2019-02-28T07:13:09.145Z,66.07
2019-02-28T07:14:12.840Z,65.77
2019-02-28T07:15:09.152Z,65.25
2019-02-28T07:16:09.107Z,65.22
2019-02-28T07:17:10.792Z,65.12
2019-02-28T07:18:09.082Z,64.88
2019-02-28T07:19:09.075Z,64.88
2019-02-28T07:20:09.666Z,64.47
2019-02-28T07:21:09.077Z,64.23
2019-02-28T07:22:09.041Z,62.77
2019-02-28T07:23:09.034Z,62.63
2019-02-28T07:24:09.022Z,62.40
2019-02-28T07:25:09.451Z,61.04
2019-02-28T07:26:09.003Z,60.78
2019-02-28T07:27:09.000Z,58.61
2019-02-28T07:28:09.000Z,57.93
2019-02-28T07:29:11.977Z,56.79
2019-02-28T07:30:08.964Z,54.36
2019-02-28T07:31:08.940Z,53.52
2019-02-28T07:32:08.943Z,52.55
2019-02-28T07:33:10.602Z,50.67
2019-02-28T07:34:08.917Z,50.22
2019-02-28T07:35:08.896Z,49.03
2019-02-28T07:36:10.356Z,47.49
2019-02-28T07:37:08.922Z,46.55
2019-02-28T07:38:08.879Z,45.92
2019-02-28T07:39:08.862Z,45.42
2019-02-28T07:40:08.840Z,44.87
2019-02-28T07:41:08.838Z,44.36
2019-02-28T07:42:08.821Z,44.44
2019-02-28T07:43:12.053Z,44.74
2019-02-28T07:44:08.800Z,43.63
2019-02-28T07:45:08.809Z,44.44
2019-02-28T07:46:08.943Z,44.44
2019-02-28T07:47:08.775Z,43.06
2019-02-28T07:48:39.478Z,42.96
2019-02-28T07:49:39.435Z,42.69
2019-02-28T07:51:10.140Z,42.66
2019-02-28T07:52:10.108Z,41.61
2019-02-28T07:53:10.114Z,41.28
2019-02-28T07:54:12.619Z,40.58
2019-02-28T07:55:41.788Z,40.58
2019-02-28T07:56:43.151Z,40.86
2019-02-28T07:58:13.447Z,39.83
2019-02-28T07:59:13.433Z,41.50
2019-02-28T08:00:17.128Z,40.82
2019-02-28T08:01:13.403Z,41.20
2019-02-28T08:02:13.397Z,40.96
2019-02-28T08:03:13.377Z,40.37
2019-02-28T08:04:18.045Z,40.14
2019-02-28T08:05:14.364Z,39.81
2019-02-28T08:06:13.363Z,39.78
2019-02-28T08:07:14.888Z,39.79
2019-02-28T08:08:13.325Z,39.59
2019-02-28T08:09:13.321Z,39.61
2019-02-28T08:10:15.988Z,39.90
2019-02-28T08:11:13.290Z,40.22
2019-02-28T08:12:13.285Z,39.79
2019-02-28T08:13:13.271Z,39.39
2019-02-28T08:14:13.261Z,39.53
2019-02-28T08:15:13.708Z,41.30
2019-02-28T08:16:13.267Z,41.41
2019-02-28T08:17:13.229Z,41.39
2019-02-28T08:18:15.762Z,40.22
2019-02-28T08:19:14.210Z,39.94
2019-02-28T08:20:13.199Z,39.85
2019-02-28T08:21:13.198Z,39.83
2019-02-28T08:22:13.173Z,39.94
2019-02-28T08:23:13.170Z,40.86
2019-02-28T08:24:13.156Z,40.98
2019-02-28T08:25:13.171Z,40.84
2019-02-28T08:26:15.464Z,39.81
2019-02-28T08:27:14.141Z,39.45
2019-02-28T08:28:13.117Z,38.75
2019-02-28T08:29:13.151Z,39.25
2019-02-28T08:30:13.091Z,38.64
2019-02-28T08:31:13.087Z,37.52
2019-02-28T08:32:13.070Z,39.05
2019-02-28T08:33:16.370Z,37.49
2019-02-28T08:34:13.052Z,38.42
2019-02-28T08:35:13.036Z,37.37
2019-02-28T08:36:13.029Z,36.77
2019-02-28T08:37:13.024Z,37.27
2019-02-28T08:38:13.016Z,37.17
2019-02-28T08:39:13.010Z,37.51
2019-02-28T08:40:15.789Z,37.37
2019-02-28T08:41:12.972Z,36.55
2019-02-28T08:42:12.970Z,36.77
2019-02-28T08:43:13.446Z,36.77
2019-02-28T08:44:12.946Z,37.19
2019-02-28T08:45:12.944Z,37.37
2019-02-28T08:46:13.840Z,36.97
2019-02-28T08:47:12.915Z,37.59
2019-02-28T08:48:12.912Z,37.30
2019-02-28T08:49:12.892Z,37.87
2019-02-28T08:50:12.886Z,36.33
2019-02-28T08:51:12.868Z,35.68
2019-02-28T08:52:12.882Z,33.64
2019-02-28T08:53:15.488Z,34.55
2019-02-28T08:54:12.850Z,33.86
2019-02-28T08:55:12.845Z,33.64
2019-02-28T08:56:14.053Z,34.05
2019-02-28T08:57:13.060Z,34.46
2019-02-28T08:58:12.801Z,34.06
2019-02-28T08:59:18.428Z,34.88
2019-02-28T09:00:13.784Z,36.25
2019-02-28T09:01:44.318Z,38.07
2019-02-28T09:02:43.479Z,35.89
2019-02-28T09:04:14.150Z,37.46
2019-02-28T09:05:14.140Z,36.41
2019-02-28T09:06:44.790Z,35.05
2019-02-28T09:07:50.941Z,34.14
2019-02-28T09:09:16.446Z,34.64
2019-02-28T09:10:16.427Z,32.81
2019-02-28T09:11:20.489Z,33.11
2019-02-28T09:12:16.399Z,33.11
2019-02-28T09:13:16.390Z,32.81
2019-02-28T09:14:17.840Z,32.67
2019-02-28T09:15:16.382Z,31.93
2019-02-28T09:16:16.398Z,32.48
2019-02-28T09:17:18.602Z,33.34
2019-02-28T09:18:16.352Z,34.74
2019-02-28T09:19:16.339Z,33.31
2019-02-28T09:20:16.335Z,33.23
2019-02-28T09:21:18.424Z,34.44
2019-02-28T09:22:16.311Z,34.05
2019-02-28T09:23:16.299Z,34.24
2019-02-28T09:24:16.287Z,34.48
2019-02-28T09:25:21.117Z,35.50
2019-02-28T09:26:17.272Z,36.00
2019-02-28T09:27:16.267Z,34.96
2019-02-28T09:28:16.253Z,35.69
2019-02-28T09:29:18.299Z,36.28
2019-02-28T09:30:16.229Z,35.18
2019-02-28T09:31:16.223Z,35.36
2019-02-28T09:32:17.563Z,37.34
2019-02-28T09:33:16.202Z,37.87
2019-02-28T09:34:16.209Z,37.04
2019-02-28T09:35:16.185Z,36.30
2019-02-28T09:36:20.198Z,35.30
2019-02-28T09:37:16.163Z,37.98
2019-02-28T09:38:16.158Z,38.70
2019-02-28T09:39:16.356Z,38.51
2019-02-28T09:40:16.130Z,39.92
2019-02-28T09:41:16.129Z,38.20
2019-02-28T09:42:16.120Z,38.09
2019-02-28T09:43:16.099Z,38.90
2019-02-28T09:44:16.092Z,38.20
2019-02-28T09:45:16.109Z,38.64
2019-02-28T09:46:16.413Z,39.84
2019-02-28T09:47:16.075Z,40.04
2019-02-28T09:48:16.049Z,39.96
2019-02-28T09:49:16.047Z,40.04
2019-02-28T09:50:16.032Z,39.74
2019-02-28T09:51:16.030Z,38.70
2019-02-28T09:52:16.015Z,38.20
2019-02-28T09:53:16.746Z,39.01
2019-02-28T09:54:15.991Z,38.93
2019-02-28T09:55:15.979Z,40.14
2019-02-28T09:56:15.971Z,39.43
2019-02-28T09:57:18.923Z,39.20
2019-02-28T09:58:15.989Z,38.21
2019-02-28T09:59:15.950Z,38.28
2019-02-28T10:00:15.927Z,37.67
2019-02-28T10:01:15.922Z,37.24
2019-02-28T10:02:15.915Z,36.54
2019-02-28T10:03:18.638Z,36.65
2019-02-28T10:04:15.920Z,37.15
2019-02-28T10:05:15.901Z,37.35
2019-02-28T10:06:16.395Z,37.39
2019-02-28T10:07:15.889Z,38.93
2019-02-28T10:08:15.879Z,39.65
2019-02-28T10:09:17.693Z,39.65
2019-02-28T10:10:17.468Z,39.74
2019-02-28T10:11:15.834Z,40.24
2019-02-28T10:12:15.814Z,39.79
2019-02-28T10:13:18.267Z,40.42
2019-02-28T10:14:15.798Z,40.22
2019-02-28T10:15:15.795Z,40.00
2019-02-28T10:16:16.765Z,39.79
2019-02-28T10:17:15.770Z,39.76
2019-02-28T10:18:15.761Z,40.10
2019-02-28T10:19:15.746Z,40.20
2019-02-28T10:20:16.419Z,40.00
2019-02-28T10:21:15.738Z,40.20
2019-02-28T10:22:15.722Z,40.96
2019-02-28T10:23:18.480Z,41.69
2019-02-28T10:24:16.691Z,42.32
2019-02-28T10:25:15.690Z,42.58
2019-02-28T10:26:17.288Z,42.38
2019-02-28T10:27:15.681Z,42.49
2019-02-28T10:28:15.657Z,42.38
2019-02-28T10:29:15.654Z,41.97
2019-02-28T10:30:16.676Z,41.67
2019-02-28T10:31:15.635Z,41.87
2019-02-28T10:32:15.615Z,42.40
2019-02-28T10:33:17.306Z,42.11
2019-02-28T10:34:15.598Z,42.41
2019-02-28T10:35:15.596Z,43.16
2019-02-28T10:36:15.582Z,43.87
2019-02-28T10:37:15.567Z,44.27
2019-02-28T10:38:15.558Z,43.77
2019-02-28T10:39:15.543Z,43.69
2019-02-28T10:40:17.892Z,43.59
2019-02-28T10:41:15.561Z,45.15
2019-02-28T10:42:15.511Z,45.98
2019-02-28T10:43:16.436Z,46.59
2019-02-28T10:44:15.502Z,45.67
2019-02-28T10:45:15.479Z,47.09
2019-02-28T10:46:16.926Z,45.43
2019-02-28T10:47:15.463Z,45.00
2019-02-28T10:48:15.451Z,44.72
2019-02-28T10:49:16.830Z,45.03
2019-02-28T10:50:15.437Z,45.37
2019-02-28T10:51:15.431Z,47.02
2019-02-28T10:52:15.419Z,47.52
2019-02-28T10:53:15.405Z,47.42
2019-02-28T10:54:15.457Z,47.31
2019-02-28T10:55:15.371Z,46.99
2019-02-28T10:56:15.376Z,45.53
2019-02-28T10:57:15.359Z,45.59
2019-02-28T10:58:15.627Z,45.49
2019-02-28T10:59:15.336Z,45.29
2019-02-28T11:00:15.327Z,45.33
2019-02-28T11:01:15.347Z,45.43
2019-02-28T11:02:19.017Z,46.77
2019-02-28T11:03:15.313Z,47.09
2019-02-28T11:04:15.283Z,47.17
2019-02-28T11:05:18.533Z,46.97
2019-02-28T11:06:15.276Z,45.86
2019-02-28T11:07:15.288Z,45.31
2019-02-28T11:08:17.379Z,45.08
2019-02-28T11:09:15.238Z,44.82
2019-02-28T11:10:15.224Z,45.41
2019-02-28T11:11:15.209Z,44.98
2019-02-28T11:12:19.624Z,45.00
2019-02-28T11:13:15.204Z,45.33
2019-02-28T11:14:15.173Z,45.86
2019-02-28T11:15:15.179Z,46.44
2019-02-28T11:16:15.150Z,45.51
2019-02-28T11:17:15.164Z,45.94
2019-02-28T11:18:15.140Z,45.94
2019-02-28T11:19:18.646Z,46.04
2019-02-28T11:20:22.098Z,45.43
2019-02-28T11:21:16.109Z,45.73
2019-02-28T11:22:15.094Z,46.26
2019-02-28T11:23:15.857Z,47.66
2019-02-28T11:24:15.063Z,45.31
2019-02-28T11:25:15.053Z,45.61
2019-02-28T11:26:15.059Z,45.18
2019-02-28T11:27:16.061Z,45.79
2019-02-28T11:28:15.024Z,45.99
2019-02-28T11:29:45.703Z,46.17
2019-02-28T11:30:45.725Z,44.96
2019-02-28T11:32:16.393Z,44.78
2019-02-28T11:33:16.374Z,44.46
2019-02-28T11:34:48.727Z,44.78
2019-02-28T11:35:47.034Z,43.87
2019-02-28T11:36:47.038Z,44.35
2019-02-28T11:37:47.019Z,44.96
2019-02-28T11:38:47.000Z,44.86
2019-02-28T11:39:47.000Z,44.76
2019-02-28T11:40:46.991Z,44.58
2019-02-28T11:41:49.282Z,45.06
2019-02-28T11:42:47.991Z,45.59
2019-02-28T11:43:46.951Z,45.10
2019-02-28T11:44:47.720Z,45.10
2019-02-28T11:45:46.927Z,45.94
2019-02-28T11:46:46.936Z,46.34
2019-02-28T11:47:46.904Z,48.08
2019-02-28T11:48:46.897Z,46.99
2019-02-28T11:49:46.900Z,47.09
2019-02-28T11:50:46.875Z,47.70
2019-02-28T11:51:49.351Z,48.31
2019-02-28T11:52:47.856Z,47.38
2019-02-28T11:53:46.853Z,47.86
2019-02-28T11:54:46.840Z,47.15
2019-02-28T11:55:46.820Z,46.95
2019-02-28T11:56:46.813Z,47.05
2019-02-28T11:57:46.797Z,47.15
2019-02-28T11:58:51.170Z,46.95
2019-02-28T11:59:46.795Z,47.39
2019-02-28T12:00:46.765Z,47.39
2019-02-28T12:01:48.350Z,47.39
2019-02-28T12:02:53.117Z,48.13
2019-02-28T12:03:47.739Z,49.11
2019-02-28T12:04:46.731Z,47.90
2019-02-28T12:05:50.092Z,48.00
2019-02-28T12:06:46.723Z,48.71
2019-02-28T12:07:46.723Z,48.21
2019-02-28T12:08:46.698Z,48.71
2019-02-28T12:09:46.697Z,48.83
2019-02-28T12:10:46.667Z,48.43
2019-02-28T12:11:46.659Z,48.91
2019-02-28T12:12:46.641Z,47.82
2019-02-28T12:13:46.625Z,48.61
2019-02-28T12:14:46.615Z,48.18
2019-02-28T12:15:47.274Z,47.47
2019-02-28T12:16:46.599Z,47.86
2019-02-28T12:17:46.597Z,47.33
2019-02-28T12:18:46.571Z,47.13
2019-02-28T12:19:47.632Z,45.94
2019-02-28T12:20:46.559Z,46.62
2019-02-28T12:21:46.546Z,45.63
2019-02-28T12:22:49.318Z,47.25
2019-02-28T12:23:46.530Z,47.05
2019-02-28T12:24:46.507Z,45.83
2019-02-28T12:25:46.503Z,46.87
2019-02-28T12:26:49.307Z,47.17
2019-02-28T12:27:47.483Z,46.83
2019-02-28T12:28:46.472Z,46.75
2019-02-28T12:29:49.261Z,47.17
2019-02-28T12:30:46.458Z,47.07
2019-02-28T12:31:46.441Z,47.07
2019-02-28T12:32:46.479Z,47.42
2019-02-28T12:33:46.411Z,47.85
2019-02-28T12:34:46.402Z,48.58
2019-02-28T12:35:46.391Z,48.88
2019-02-28T12:36:49.303Z,49.82
2019-02-28T12:37:46.373Z,49.52
2019-02-28T12:38:46.365Z,48.60
2019-02-28T12:39:46.367Z,49.62
2019-02-28T12:40:49.315Z,49.39
2019-02-28T12:41:46.354Z,50.40
2019-02-28T12:42:46.384Z,49.59
2019-02-28T12:43:46.309Z,48.78
2019-02-28T12:44:48.837Z,48.58
2019-02-28T12:45:47.324Z,48.66
2019-02-28T12:46:46.275Z,48.68
2019-02-28T12:47:46.276Z,48.55
2019-02-28T12:48:48.367Z,48.88
2019-02-28T12:49:46.241Z,49.16
2019-02-28T12:50:46.233Z,48.55
2019-02-28T12:51:46.215Z,48.66
2019-02-28T12:52:48.842Z,48.46
2019-02-28T12:53:46.203Z,48.05
2019-02-28T12:54:46.188Z,48.46
2019-02-28T12:55:46.179Z,48.38
2019-02-28T12:56:47.809Z,48.48
2019-02-28T12:57:46.184Z,48.80
2019-02-28T12:58:46.168Z,48.71
2019-02-28T12:59:47.057Z,50.02
2019-02-28T13:00:46.120Z,49.52
2019-02-28T13:01:46.103Z,50.04
2019-02-28T13:02:47.178Z,50.23
2019-02-28T13:03:46.091Z,50.33
2019-02-28T13:04:46.091Z,50.23
2019-02-28T13:05:48.035Z,49.84
2019-02-28T13:06:46.060Z,49.84
2019-02-28T13:07:46.057Z,49.84
2019-02-28T13:08:46.061Z,50.65
2019-02-28T13:09:48.181Z,50.37
2019-02-28T13:10:47.009Z,50.98
2019-02-28T13:11:46.003Z,50.88
2019-02-28T13:12:48.953Z,50.45
2019-02-28T13:13:45.979Z,50.86
2019-02-28T13:14:45.985Z,50.35
2019-02-28T13:15:46.820Z,51.26
2019-02-28T13:16:45.955Z,50.88
2019-02-28T13:17:45.973Z,51.46
2019-02-28T13:18:45.935Z,51.09
2019-02-28T13:19:45.919Z,50.88
2019-02-28T13:20:45.910Z,51.29
2019-02-28T13:21:46.922Z,51.42
2019-02-28T13:22:45.879Z,51.09
2019-02-28T13:23:45.877Z,51.01
2019-02-28T13:24:47.576Z,51.62
2019-02-28T13:25:45.854Z,51.42
2019-02-28T13:26:45.951Z,52.23